Skip Navigation Links weather.gov 
NOAA logo-Select to go to the NOAA homepage NDBC Title GraphicClick to go to NDBC home page   Select to go to the NWS homepage
Home About Us Contact Us
 
 
    
    Station List

 Data Access
    Mobile Access
    Classic Maps
         Recent
         DART®
    Obs Search
    Ship Obs Report
    BuoyCAMs
    TAO
    DODS
    OceanSITES
    HF Radar
    OSMC
    Dial-A-Buoy
    RSS Feeds Image indicating link to RSS feed access page
    Web Widget
    Email Access
    Web Data Guide
    Maintenance Schedule
    Station Status Report

 Program Info
    TAO
    DART®
    IOOS®

 Publications
    NDBC PEA
    NDBC FONSI
    NDBC DQC Handbook

 FAQ
 Visitor Information
 
USA.gov is the U.S. government's official web portal to all federal, state and local government web resources and services.

Hurricane Symbol Storm Special! View the latest observations near Central Pacific Hurricane Lane.

The NDBC website is now available only via HTTPS. Please update your bookmarks and/or links to use https://www.ndbc.noaa.gov/.

Station CPXC1 - Cal Poly Pier, CA Image indicating link to RSS feed of recent meteorological observations for station CPXC1

Owned and maintained by California Polytechnic State University
Coastal Marine Station
35.170 N 120.741 W (35°10'12" N 120°44'27" W)

Site elevation: sea level
Air temp height: 4 m above site elevation
Anemometer height: 4 m above site elevation
Barometer elevation: 4 m above mean sea level

Search And Rescue (SAR) Data

Meteorological Observations from Nearby Stations and Ships Image indicating link to RSS feed of recent meteorological observations near station CPXC1

Regional HF Radar Surface Current Observations

Station CPXC1
Large icon indicates selected station.
yellow diamond Stations with recent data
red diamond Stations with no data in last 8 hours
     (24 hours for tsunami stations)


Conditions at CPXC1 as of
(4:58 pm PDT)
2358 GMT on 08/20/2018:
     

Click on the graph icon in the table below to see a time series plot of the last five days of that observation.

5-day plot - Wind Direction Wind Direction (WDIR): WNW ( 300 deg true )
5-day plot - Wind Speed Wind Speed (WSPD): 12.0 kts
5-day plot - Wind Gust Wind Gust (GST): 15.9 kts
5-day plot - Atmospheric Pressure Atmospheric Pressure (PRES): 29.94 in
5-day plot - Air Temperature Air Temperature (ATMP): 62.4 °F
5-day plot - Dew Point Dew Point (DEWP): 57.4 °F
5-day plot - Wind Speed at 10 Meters Wind Speed at 10 meters (WSPD10M): 11.7 kts
5-day plot - Wind Speed at 10 Meters Wind Speed at 20 meters (WSPD20M): 13.6 kts
5-day plot - Wind Speed, Wind Gust and Atmospheric Pressure Combined plot of Wind Speed, Gust, and Air Pressure
Previous observations
5-day plot - Wind Direction 5-day plot - Wind Speed 5-day plot - Wind Gust 5-day plot - Wave Height 5-day plot - Dominant Wave Period 5-day plot - Average Period 5-day plot - Mean Wave Direction 5-day plot - Atmospheric Pressure 5-day plot - Pressure Tendency 5-day plot - Air Temperature 5-day plot - Water Temperature 5-day plot - Dew Point 5-day plot - Salinity 5-day plot - Visibility 5-day plot - Tide (above MLLW)
MM DD TIME
(PDT)
WDIR WSPD
kts
GST
kts
WVHT
ft
DPD
sec
APD
sec
MWD PRES
in
PTDY
in
ATMP
°F
WTMP
°F
DEWP
°F
SAL
psu
VIS
nmi
TIDE
ft
0820 4:48 pmWNW 13.0 15.9----29.94-0.04 62.6- 57.4---
0820 4:46 pmWNW 12.0 15.0----29.94- 62.6- 57.2---
0820 4:44 pmWNW 12.0 15.0----29.94- 62.8- 57.4---
0820 4:42 pmWNW 12.0 15.0----29.94- 62.8- 57.4---
0820 4:40 pm W 12.0 15.0----29.94- 62.4- 56.7---
0820 4:38 pm W 12.0 14.0----29.94- 62.6- 56.8---
0820 4:36 pmWNW 12.0 15.0----29.94- 62.8- 57.2---
0820 4:34 pm W 9.9 14.0----29.94- 62.8- 57.4---
0820 4:32 pm W 9.9 13.0----29.94- 62.8- 57.6---
0820 4:30 pm W 11.1 15.0----29.94- 62.6- 57.4---
0820 4:28 pmWNW 12.0 15.0----29.94- 62.6- 57.6---
0820 4:26 pm W 9.9 14.0----29.94- 62.4- 57.6---
0820 4:24 pmWNW 14.0 15.9----29.94- 62.4- 57.4---
0820 4:22 pmWNW 12.0 14.0----29.94- 62.4- 57.4---
0820 4:20 pmWNW 11.1 15.0----29.94- 62.4- 57.2---
0820 4:18 pmWNW 13.0 15.0----29.94- 62.4- 57.2---
0820 4:16 pmWNW 13.0 17.1----29.94- 62.4- 57.7---
0820 4:14 pmWNW 14.0 17.1----29.94- 62.1- 56.8---
0820 4:12 pmWNW 14.0 17.1----29.94- 62.1- 56.8---
0820 4:10 pmWNW 15.0 18.1----29.94- 62.2- 56.8---
0820 4:08 pmWNW 12.0 15.0----29.94- 62.6- 57.2---
0820 4:06 pmWNW 12.0 15.9----29.94- 62.6- 57.2---
0820 4:04 pmWNW 12.0 15.9----29.94- 62.8- 57.4---
0820 4:02 pmWNW 13.0 17.1----29.94- 62.6- 57.0---
0820 4:00 pmWNW 12.0 15.9----29.94- 62.8- 57.2---
0820 3:58 pmWNW 12.0 15.9----29.95- 62.8- 57.6---
0820 3:56 pmWNW 12.0 15.0----29.95- 63.0- 57.2---
0820 3:54 pm W 12.0 18.1----29.95- 63.0- 57.0---
0820 3:52 pm W 9.9 13.0----29.95- 63.1- 57.4---
0820 3:50 pm W 12.0 15.0----29.95- 63.1- 57.2---
0820 3:48 pm W 9.9 13.0----29.95-0.04 63.0- 57.2---
0820 3:46 pm W 11.1 15.0----29.95- 62.8- 56.8---
0820 3:44 pm W 11.1 13.0----29.95- 63.0- 56.7---
0820 3:42 pm W 9.9 12.0----29.95- 63.1- 57.2---
0820 3:40 pm W 9.9 13.0----29.95- 63.1- 57.4---
0820 3:38 pm W 12.0 14.0----29.95- 63.0- 57.0---
0820 3:36 pm W 11.1 14.0----29.95- 63.1- 57.2---
0820 3:34 pm W 11.1 15.0----29.95- 63.0- 57.2---
0820 3:32 pm W 11.1 14.0----29.95- 63.0- 57.2---
0820 3:30 pm W 12.0 15.0----29.95- 63.0- 57.2---
0820 3:28 pmWNW 12.0 15.0----29.95- 63.0- 57.6---
0820 3:26 pm W 12.0 15.0----29.95- 63.0- 57.7---
0820 3:24 pm W 12.0 15.0----29.95- 63.0- 57.4---
0820 3:22 pm W 11.1 14.0----29.95- 63.1- 57.4---
0820 3:20 pm W 9.9 13.0----29.95- 63.1- 57.7---
0820 3:18 pmWNW 12.0 15.0----29.95- 62.8- 57.4---
0820 3:16 pmWNW 11.1 14.0----29.95- 62.8- 57.4---
0820 3:14 pmWNW 12.0 15.0----29.95- 62.8- 57.2---
0820 3:12 pmWNW 14.0 15.9----29.95- 62.6- 56.8---
0820 3:10 pmWNW 14.0 15.9----29.95- 62.4- 56.5---
0820 3:08 pmWNW 13.0 15.9----29.95- 62.8- 57.4---
0820 3:06 pmWNW 14.0 15.9----29.95- 62.6- 56.8---
0820 3:04 pmWNW 14.0 15.9----29.95- 62.6- 56.5---
0820 3:02 pm W 11.1 15.0----29.96- 63.0- 57.0---
0820 3:00 pmWNW 12.0 15.9----29.96- 63.0- 57.0---
0820 2:58 pmWNW 12.0 14.0----29.96- 63.1- 57.4---
0820 2:56 pmWNW 13.0 15.9----29.96- 63.1- 57.2---
0820 2:54 pmWNW 11.1 14.0----29.96- 63.1- 56.8---
0820 2:52 pm W 9.9 13.0----29.96- 63.5- 57.4---
0820 2:50 pm W 9.9 12.0----29.96- 63.5- 57.0---
0820 2:48 pm W 9.9 13.0----29.96-0.05 63.7- 57.4---
0820 2:46 pm W 8.9 12.0----29.96- 63.9- 57.6---
0820 2:44 pm W 8.9 9.9----29.96- 63.9- 57.2---
0820 2:42 pm W 8.9 12.0----29.96- 64.0- 57.2---
0820 2:40 pm W 8.9 12.0----29.96- 64.2- 57.7---
0820 2:38 pm W 8.0 9.9----29.96- 64.4- 58.1---
0820 2:36 pmWNW 7.0 9.9----29.96- 64.0- 57.6---
0820 2:34 pm W 7.0 9.9----29.96- 64.0- 57.7---
0820 2:32 pm W 8.0 12.0----29.96- 63.7- 57.4---
0820 2:30 pmWNW 9.9 12.0----29.97- 63.7- 57.6---
0820 2:28 pmWNW 8.9 12.0----29.97- 63.5- 57.2---
0820 2:26 pmWNW 8.0 9.9----29.97- 63.9- 57.6---
0820 2:24 pmWNW 8.9 11.1----29.96- 63.3- 57.4---
0820 2:22 pmWNW 11.1 13.0----29.97- 63.0- 57.0---
0820 2:20 pmWNW 12.0 15.0----29.96- 62.8- 56.7---
0820 2:18 pmWNW 11.1 13.0----29.97- 63.0- 56.8---
0820 2:16 pmWNW 11.1 13.0----29.97- 63.0- 56.8---
0820 2:14 pmWNW 12.0 14.0----29.97- 63.1- 57.0---
0820 2:12 pmWNW 12.0 13.0----29.97- 63.1- 56.8---
0820 2:10 pmWNW 9.9 13.0----29.97- 63.3- 57.2---
0820 2:08 pmWNW 9.9 12.0----29.97- 63.3- 56.5---
0820 2:06 pm W 9.9 13.0----29.97- 63.5- 56.8---
0820 2:04 pm W 7.0 11.1----29.97- 63.7- 57.0---
0820 2:02 pm W 5.1 8.9----29.97- 63.9- 57.0---
0820 2:00 pm W 6.0 8.9----29.97- 63.9- 57.6---
0820 1:58 pm W 6.0 8.9----29.97- 63.7- 57.4---
0820 1:56 pm W 4.1 5.1----29.98- 63.5- 57.6---
0820 1:54 pmWSW 6.0 7.0----29.98- 63.1- 57.2---
0820 1:52 pmWSW 7.0 8.9----29.98- 62.8- 57.2---
0820 1:50 pmWSW 8.0 9.9----29.97- 62.6- 56.8---
0820 1:48 pmWSW 8.0 9.9----29.98-0.03 62.4- 56.8---
0820 1:46 pmWSW 8.9 11.1----29.98- 62.1- 56.5---
0820 1:44 pm SW 9.9 12.0----29.97- 61.9- 56.5---
0820 1:42 pm SW 9.9 13.0----29.97- 61.9- 56.7---
0820 1:40 pm SW 9.9 12.0----29.97- 61.7- 56.7---
0820 1:38 pm SW 11.1 13.0----29.97- 61.7- 56.7---
0820 1:36 pm SW 11.1 14.0----29.97- 61.7- 56.7---
0820 1:34 pm SW 11.1 14.0----29.97- 61.5- 56.7---
0820 1:32 pm SW 11.1 15.0----29.97- 61.2- 56.5---
0820 1:30 pm SW 9.9 13.0----29.97- 61.3- 56.8---
0820 1:28 pm SW 11.1 13.0----29.97- 61.0- 56.7---
0820 1:26 pm SW 9.9 13.0----29.97- 61.2- 57.2---
0820 1:24 pm SW 9.9 13.0----29.97- 61.0- 57.4---
0820 1:22 pm SW 11.1 13.0----29.97- 60.6- 57.0---
0820 1:20 pm SW 9.9 13.0----29.97- 60.6- 57.2---
0820 1:18 pm SW 12.0 14.0----29.97- 60.3- 56.8---
0820 1:16 pmSSW 12.0 13.0----29.97- 59.9- 56.1---
0820 1:14 pmSSW 11.1 13.0----29.97- 60.3- 56.8---
0820 1:12 pm SW 12.0 13.0----29.97- 59.9- 56.3---
0820 1:10 pm SW 11.1 13.0----29.97- 59.9- 56.5---
0820 1:08 pmSSW 12.0 13.0----29.98- 59.7- 55.9---
0820 1:06 pmSSW 11.1 13.0----29.98- 59.9- 56.3---
0820 1:04 pmSSW 9.9 12.0----29.98- 59.7- 56.1---
0820 1:02 pmSSW 9.9 12.0----29.98- 59.9- 56.5---
0820 1:00 pmSSW 9.9 12.0----29.98- 59.5- 55.9---
082012:58 pmSSW 8.9 9.9----29.98- 59.7- 56.1---
082012:56 pm SW 9.9 11.1----29.98- 59.5- 55.9---
082012:54 pm SW 8.9 9.9----29.98- 59.5- 55.9---
082012:52 pm SW 8.9 11.1----29.98- 59.5- 55.9---
082012:50 pm SW 8.9 11.1----29.99- 59.7- 56.1---
082012:48 pm SW 8.9 11.1----29.99-0.01 59.7- 56.1---
082012:46 pm SW 8.0 9.9----29.99- 59.4- 55.8---
082012:44 pm SW 8.0 8.9----29.99- 59.4- 55.9---
082012:42 pm SW 8.0 8.9----29.99- 59.4- 55.9---
082012:40 pm SW 7.0 8.9----29.99- 59.5- 56.1---
082012:38 pm SW 7.0 8.9----29.99- 59.7- 56.3---
082012:36 pm SW 7.0 8.0----29.99- 59.4- 55.9---
082012:34 pm SW 7.0 8.9----29.99- 59.4- 55.9---
082012:32 pm SW 7.0 8.9----29.99- 59.4- 55.8---
082012:30 pm SW 7.0 8.9----30.00- 59.7- 56.1---
082012:28 pm SW 6.0 7.0----30.00- 59.5- 55.9---
082012:26 pm SW 7.0 8.9----30.00- 59.5- 55.9---
082012:24 pm SW 7.0 8.9----30.00- 59.7- 55.9---
082012:22 pm SW 7.0 8.9----30.00- 59.7- 55.9---
082012:20 pmSSW 6.0 7.0----30.00- 59.9- 56.3---
082012:18 pmSSW 6.0 8.0----30.00- 59.9- 56.3---
082012:16 pm SW 6.0 7.0----30.00- 59.7- 56.1---
082012:14 pm SW 6.0 7.0----30.00- 59.7- 56.1---
082012:12 pm SW 5.1 7.0----30.00- 59.7- 56.1---
082012:10 pm SW 6.0 8.0----30.00- 59.7- 55.8---
082012:08 pm SW 7.0 8.0----30.00- 59.7- 55.8---
082012:06 pm SW 6.0 7.0----30.00- 59.9- 55.9---
082012:04 pm SW 6.0 7.0----30.00- 59.9- 55.8---
082012:02 pmSSW 5.1 7.0----30.00- 60.1- 55.9---
082012:00 pmSSW 5.1 7.0----30.00- 60.3- 55.8---
082011:58 amSSW 5.1 7.0----30.00- 60.6- 55.9---
082011:56 amSSW 5.1 7.0----30.00- 60.4- 55.8---
082011:54 amSSW 5.1 7.0----30.00- 60.8- 55.8---
082011:52 amSSW 4.1 7.0----30.00- 60.8- 55.4---
082011:50 amSSW 4.1 6.0----30.00- 61.2- 55.8---
082011:48 amSSW 4.1 6.0----30.00+0.02 61.7- 56.1---
082011:46 amSSW 2.9 5.1----30.00- 62.1- 56.5---
082011:44 am S 1.9 4.1----30.00- 62.2- 56.8---
082011:42 am S 2.9 4.1----30.00- 61.9- 56.5---
082011:40 am S 1.9 4.1----30.00- 61.9- 57.0---
082011:38 am S 1.9 4.1----30.00- 61.7- 57.0---
082011:36 amSSW 1.9 2.9----30.00- 61.2- 56.5---
082011:34 am- 0.0 1.9----30.00- 61.2- 56.8---
082011:32 amSSW 1.0 2.9----30.00- 61.0- 56.7---
082011:30 amSSW 1.0 1.9----30.00- 61.0- 56.7---
082011:28 amSSW 1.9 2.9----30.00- 60.8- 56.7---
082011:26 amSSW 1.9 1.9----30.00- 60.8- 56.5---
082011:24 am SW 1.9 4.1----30.00- 60.8- 56.7---
082011:22 am- 0.0 1.9----30.00- 61.2- 57.2---
082011:20 am- 0.0 1.0----30.00- 61.0- 56.8---
082011:18 am NW 1.0 1.9----30.00- 61.0- 56.7---
082011:16 am NW 1.0 1.9----30.00- 61.0- 56.7---
082011:14 am NW 1.9 1.9----30.00- 60.8- 56.3---
082011:12 am NW 1.9 1.9----30.00- 61.0- 56.3---
082011:10 am- 0.0 1.0----30.01- 61.2- 56.8---
082011:08 am- 0.0 1.9----30.01- 61.0- 56.5---
082011:06 am- 0.0 1.9----30.01- 61.0- 56.5---
082011:04 am- 0.0 1.9----30.01- 61.0- 56.7---
082011:02 am- 0.0 1.0----30.01- 61.0- 56.8---
082011:00 am- 0.0 1.0----30.01- 61.0- 57.0---
082010:58 am- 0.0 1.0----30.01- 60.8- 57.2---
082010:56 am- 0.0 1.0----30.01- 60.6- 57.0---
082010:54 am- 0.0 1.0----30.01- 60.4- 57.0---
082010:52 am- 0.0 1.0----30.00- 60.4- 57.2---
082010:50 am- 0.0 1.0----30.00- 60.3- 57.2---
082010:48 am- 0.0 1.0----30.00+0.04 60.1- 57.0---
082010:46 am- 0.0 1.0----30.00- 59.9- 56.8---
082010:44 am- 0.0 1.9----30.00- 59.9- 56.8---
082010:42 amWNW 1.0 1.9----30.00- 59.9- 57.2---
082010:40 am- 0.0 1.0----30.00- 59.9- 57.2---
082010:38 am- 0.0 1.9----30.00- 59.7- 57.2---
082010:36 am W 1.0 1.9----30.00- 59.2- 56.7---
082010:34 am- 0.0 1.9----30.00- 59.2- 56.8---
082010:32 am- 0.0 1.0----30.01- 59.4- 57.2---
082010:30 am- 0.0 1.0----30.01- 59.2- 57.0---
082010:28 am- 0.0 1.0----30.00- 59.2- 57.0---
082010:26 am- 0.0 1.0----30.00- 58.8- 56.7---
082010:24 am W 1.9 1.9----30.00- 58.5- 56.3---
082010:22 amWSW 1.0 1.9----30.00- 58.5- 56.3---
082010:20 am SW 1.9 4.1----30.01- 58.5- 56.3---
082010:18 amWSW 1.9 4.1----30.01- 58.5- 56.5---
082010:16 am SW 1.9 2.9----30.01- 58.5- 56.5---
082010:14 am W 1.0 1.9----30.01- 58.5- 56.5---
082010:12 am- 0.0 1.9----30.01- 58.5- 56.5---
082010:10 am- 0.0 1.9----30.01- 58.3- 56.3---
082010:08 amWSW 1.9 4.1----30.01- 58.1- 56.1---
082010:06 amWSW 1.9 2.9----30.01- 58.1- 56.1---
082010:04 am SW 1.9 2.9----30.01- 58.1- 56.3---
082010:02 amWSW 1.9 4.1----30.01- 58.1- 56.1---
082010:00 am SW 2.9 4.1----30.01- 58.1- 56.1---
0820 9:58 amWSW 2.9 5.1----30.01- 58.1- 56.1---
0820 9:56 am SW 4.1 5.1----30.01- 58.1- 56.1---
0820 9:54 amWSW 4.1 5.1----30.00- 57.9- 55.9---
0820 9:52 amWSW 2.9 4.1----30.00- 57.9- 55.9---
0820 9:50 amWSW 4.1 5.1----30.00- 57.7- 55.8---
0820 9:48 amWSW 4.1 5.1----30.00+0.05 57.9- 55.9---
0820 9:46 amWSW 4.1 5.1----30.00- 57.9- 55.9---
0820 9:44 amWSW 5.1 5.1----30.00- 57.9- 55.9---
0820 9:42 amWSW 4.1 5.1----30.00- 58.1- 56.1---
0820 9:40 amWSW 4.1 4.1----30.00- 57.9- 55.9---
0820 9:38 amWSW 4.1 5.1----30.00- 57.9- 55.9---
0820 9:36 amWSW 4.1 5.1----30.00- 58.1- 56.1---
0820 9:34 am SW 4.1 7.0----30.00- 58.1- 56.1---
0820 9:32 amSSW 1.9 4.1----29.99- 58.1- 56.1---
0820 9:30 amSSW 2.9 5.1----29.99- 58.1- 56.1---
0820 9:28 am S 2.9 5.1----29.99- 58.1- 56.1---
0820 9:26 am S 2.9 5.1----29.99- 58.1- 56.1---
0820 9:24 am S 4.1 6.0----29.99- 58.1- 56.1---
0820 9:22 amSSW 4.1 6.0----29.99- 58.1- 56.1---
0820 9:20 amSSW 2.9 5.1----29.99- 58.1- 56.1---
0820 9:18 amSSW 2.9 4.1----29.99- 58.1- 56.1---
0820 9:16 am S 1.9 4.1----29.99- 58.3- 56.5---
0820 9:14 am S 1.9 2.9----29.99- 58.1- 56.3---
0820 9:12 am S 1.9 4.1----29.99- 58.1- 56.1---
0820 9:10 amWSW 1.9 4.1----29.99- 58.1- 56.1---
0820 9:08 amWSW 1.0 1.9----29.99- 58.1- 56.1---
0820 9:06 am W 1.9 2.9----29.98- 58.1- 56.1---
0820 9:04 am SW 2.9 4.1----29.98- 58.1- 56.1---
0820 9:02 am SW 2.9 5.1----29.98- 58.1- 56.1---
0820 9:00 am SW 2.9 4.1----29.98- 58.1- 56.1---
0820 8:58 amSSW 1.9 4.1----29.98- 58.1- 56.1---
0820 8:56 amSSE 1.0 1.9----29.98- 58.3- 56.3---
0820 8:54 amSSE 1.0 1.9----29.98- 58.3- 56.3---
0820 8:52 amSSE 1.9 2.9----29.98- 58.3- 56.5---
0820 8:50 amSSE 1.9 2.9----29.98- 58.3- 56.5---
0820 8:48 amSSW 1.0 1.9----29.98- 58.5- 56.7---
0820 8:46 am S 1.9 2.9----29.98- 58.3- 56.5---
0820 8:44 am S 1.0 2.9----29.98- 58.3- 56.5---
0820 8:42 am SE 2.9 5.1----29.98- 58.3- 56.5---
0820 8:40 am E 2.9 5.1----29.98- 58.1- 56.3---
0820 8:38 amESE 2.9 4.1----29.98- 58.1- 56.3---
0820 8:36 amSSE 1.9 2.9----29.98- 57.9- 56.1---
0820 8:34 am SE 1.9 4.1----29.98- 57.9- 56.1---
0820 8:32 amSSE 1.9 4.1----29.98- 58.1- 56.3---
0820 8:30 amSSE 1.9 2.9----29.98- 58.1- 56.3---
0820 8:28 amSSE 1.9 4.1----29.98- 57.9- 56.1---
0820 8:26 amSSE 4.1 5.1----29.98- 57.9- 56.1---
0820 8:24 amSSE 5.1 5.1----29.98- 57.9- 56.1---
0820 8:22 am S 2.9 5.1----29.98- 58.1- 56.5---
0820 8:20 amSSW 2.9 5.1----29.98- 58.1- 56.5---
0820 8:18 am S 2.9 5.1----29.98- 58.1- 56.5---
0820 8:16 am S 1.0 2.9----29.98- 58.1- 56.5---
0820 8:14 amSSW 1.0 2.9----29.97- 57.9- 56.3---
0820 8:12 am SW 1.9 2.9----29.97- 57.9- 56.3---
0820 8:10 amSSW 1.9 4.1----29.97- 57.9- 56.3---
0820 8:08 am S 1.9 2.9----29.97- 57.9- 56.3---
0820 8:06 am S 1.9 4.1----29.97- 57.9- 56.3---
0820 8:04 am S 1.9 2.9----29.97- 57.9- 56.3---
0820 8:02 amSSE 1.9 4.1----29.97- 57.9- 56.3---
0820 8:00 amSSE 1.9 2.9----29.97- 58.1- 56.5---
0820 7:58 amSSE 1.0 2.9----29.97- 57.9- 56.3---
0820 7:56 am S 1.9 2.9----29.97- 57.9- 56.3---
0820 7:54 am S 1.9 4.1----29.97- 57.9- 56.3---
0820 7:52 am S 2.9 4.1----29.97- 57.9- 56.1---
0820 7:50 am S 1.9 5.1----29.97- 58.1- 56.5---
0820 7:48 amSSW 2.9 4.1----29.97+0.04 57.9- 56.3---
0820 7:46 am S 2.9 4.1----29.97- 57.9- 56.1---
0820 7:44 am S 4.1 5.1----29.97- 57.9- 56.1---
0820 7:42 amSSW 4.1 5.1----29.96- 57.9- 56.1---
0820 7:40 amSSW 2.9 4.1----29.96- 58.1- 56.5---
0820 7:38 amSSW 4.1 5.1----29.96- 58.1- 56.3---
0820 7:36 amSSW 4.1 5.1----29.96- 57.9- 56.1---
0820 7:34 amSSW 2.9 4.1----29.96- 57.9- 56.1---
0820 7:32 amSSW 1.9 4.1----29.96- 58.1- 56.3---
0820 7:30 amSSW 1.9 2.9----29.96- 58.1- 56.3---
0820 7:28 am SW 2.9 4.1----29.96- 57.9- 56.1---
0820 7:26 amWSW 2.9 5.1----29.96- 57.9- 56.1---
0820 7:24 amWSW 4.1 5.1----29.96- 57.9- 56.1---
0820 7:22 amWSW 2.9 4.1----29.96- 58.1- 56.3---
0820 7:20 am W 2.9 4.1----29.96- 58.1- 56.3---
0820 7:18 am W 2.9 4.1----29.96- 58.1- 56.1---
0820 7:16 am W 4.1 5.1----29.96- 58.1- 56.3---
0820 7:14 am W 4.1 5.1----29.96- 58.1- 56.3---
0820 7:12 am W 2.9 4.1----29.96- 58.1- 56.1---
0820 7:10 am W 1.9 4.1----29.96- 58.1- 56.1---
0820 7:08 amWSW 1.9 2.9----29.96- 58.3- 56.3---
0820 7:06 am SW 1.9 4.1----29.96- 58.1- 56.1---
0820 7:04 amWSW 4.1 5.1----29.96- 58.1- 56.1---
0820 7:02 am W 2.9 5.1----29.96- 58.1- 56.1---
0820 7:00 amWSW 1.9 4.1----29.96- 58.1- 56.1---
0820 6:58 am W 2.9 4.1----29.96- 58.1- 56.1---
0820 6:56 amWNW 2.9 5.1----29.96- 58.1- 56.1---
0820 6:54 am W 1.9 2.9----29.95- 58.1- 56.1---
0820 6:52 am W 2.9 5.1----29.95- 58.1- 56.1---
0820 6:50 amWNW 2.9 4.1----29.95- 58.1- 56.1---
0820 6:48 amWNW 4.1 5.1----29.95+0.03 58.1- 56.1---
0820 6:46 amWNW 4.1 5.1----29.95- 58.1- 56.1---
0820 6:44 am W 4.1 5.1----29.95- 58.1- 56.1---
0820 6:42 am W 2.9 4.1----29.95- 58.1- 56.1---
0820 6:40 am W 4.1 5.1----29.95- 58.1- 56.1---
0820 6:38 am W 2.9 4.1----29.95- 58.1- 56.1---
0820 6:36 am W 2.9 5.1----29.95- 58.1- 56.1---
0820 6:34 am W 4.1 5.1----29.95- 58.1- 55.9---
0820 6:32 am W 4.1 5.1----29.95- 57.9- 55.8---
0820 6:30 am W 5.1 7.0----29.95- 58.1- 55.9---
0820 6:28 am W 5.1 7.0----29.95- 58.1- 55.9---
0820 6:26 am W 5.1 6.0----29.95- 58.3- 56.1---
0820 6:24 am W 5.1 6.0----29.94- 58.3- 56.1---
0820 6:22 am W 5.1 5.1----29.94- 58.3- 56.1---
0820 6:20 am W 4.1 5.1----29.94- 58.3- 56.1---
0820 6:18 am W 4.1 6.0----29.94- 58.3- 55.9---
0820 6:16 am W 4.1 5.1----29.94- 58.3- 56.1---
0820 6:14 am W 5.1 6.0----29.94- 58.5- 56.3---
0820 6:12 am W 4.1 5.1----29.93- 58.5- 56.3---
0820 6:10 am W 4.1 5.1----29.93- 58.3- 55.9---
0820 6:08 am W 4.1 5.1----29.93- 58.5- 56.1---
0820 6:06 am W 2.9 4.1----29.93- 58.5- 56.1---
0820 6:04 amWNW 2.9 4.1----29.93- 58.5- 56.1---
0820 6:02 amWNW 4.1 5.1----29.93- 58.5- 56.1---
0820 6:00 am W 4.1 6.0----29.93- 58.5- 56.1---
0820 5:58 am W 4.1 5.1----29.93- 58.5- 56.1---
0820 5:56 am W 4.1 5.1----29.93- 58.5- 56.1---
0820 5:54 am W 4.1 5.1----29.93- 58.6- 56.3---
0820 5:52 am W 4.1 5.1----29.93- 58.6- 56.3---
0820 5:50 am W 2.9 5.1----29.93- 58.6- 56.3---
0820 5:48 am W 2.9 4.1----29.93+0.00 58.6- 56.3---
0820 5:46 amWNW 2.9 5.1----29.93- 58.6- 56.3---
0820 5:44 am W 4.1 5.1----29.93- 58.6- 56.3---
0820 5:42 am W 4.1 5.1----29.93- 58.6- 56.3---
0820 5:40 am W 4.1 6.0----29.93- 59.0- 56.7---
0820 5:38 am W 2.9 4.1----29.93- 58.8- 56.5---
0820 5:36 am W 4.1 5.1----29.93- 58.8- 56.3---
0820 5:34 am W 5.1 7.0----29.93- 58.6- 56.3---
0820 5:32 amWNW 5.1 5.1----29.93- 58.6- 56.1---
0820 5:30 amWNW 5.1 7.0----29.93- 58.8- 56.3---
0820 5:28 am W 4.1 5.1----29.93- 59.0- 56.5---
0820 5:26 am W 4.1 5.1----29.93- 58.8- 56.3---
0820 5:24 amWNW 1.9 4.1----29.93- 58.8- 56.3---
0820 5:22 am W 4.1 5.1----29.93- 58.8- 56.3---
0820 5:20 am W 4.1 6.0----29.93- 58.8- 56.3---
0820 5:18 am W 4.1 7.0----29.93- 58.8- 56.3---
0820 5:16 am W 4.1 6.0----29.93- 59.0- 56.5---
0820 5:14 amWSW 2.9 5.1----29.93- 59.0- 56.5---
0820 5:12 am SW 4.1 5.1----29.93- 59.2- 56.7---
0820 5:10 am SW 2.9 5.1----29.93- 59.0- 56.5---
0820 5:08 am- 0.0 1.9----29.93- 59.4- 56.8---
0820 5:06 am- 0.0 1.9----29.93- 59.2- 56.7---
0820 5:04 amESE 1.9 2.9----29.93- 59.4- 56.8---
0820 5:02 am SE 1.9 2.9----29.93- 59.4- 57.0---
0820 5:00 am S 1.9 4.1----29.93- 59.4- 57.0---
0820 4:58 amSSW 1.9 4.1----29.93- 59.4- 56.8---
0820 4:56 amSSW 2.9 5.1----29.93- 59.4- 56.8---
0820 4:54 amSSW 5.1 7.0----29.93- 59.4- 56.8---
0820 4:52 am SE 5.1 7.0----29.93- 59.4- 56.8---
0820 4:50 am SE 5.1 7.0----29.93- 59.4- 56.8---
0820 4:48 am SE 5.1 6.0----29.93+0.00 59.4- 56.8---
0820 4:46 amESE 4.1 8.0----29.92- 59.5- 57.0---
0820 4:44 am E 2.9 5.1----29.92- 59.4- 56.8---
0820 4:42 am E 1.0 1.9----29.92- 59.4- 56.8---
0820 4:40 am E 4.1 7.0----29.93- 59.4- 56.7---
0820 4:38 amESE 5.1 6.0----29.93- 59.4- 56.8---
0820 4:36 amESE 5.1 7.0----29.93- 59.4- 56.7---
0820 4:34 am E 2.9 5.1----29.92- 59.5- 57.0---
0820 4:32 amENE 1.9 2.9----29.92- 59.4- 56.8---
0820 4:30 amESE 1.9 5.1----29.92- 59.5- 57.0---
0820 4:28 am SE 1.9 4.1----29.92- 59.5- 57.0---
0820 4:26 am SE 1.9 4.1----29.92- 59.4- 56.8---
0820 4:24 am- 0.0 1.9----29.92- 59.4- 56.7---
0820 4:22 amESE 2.9 5.1----29.92- 59.2- 56.5---
0820 4:20 amESE 5.1 7.0----29.92- 59.4- 56.8---
0820 4:18 amESE 5.1 6.0----29.92- 59.5- 57.0---
0820 4:16 amESE 4.1 6.0----29.92- 59.7- 57.2---
0820 4:14 am E 4.1 5.1----29.92- 59.5- 57.0---
0820 4:12 am E 2.9 5.1----29.92- 59.5- 56.8---
0820 4:10 amESE 4.1 5.1----29.92- 59.4- 56.7---
0820 4:08 amESE 4.1 6.0----29.92- 59.4- 56.7---
0820 4:06 am E 4.1 5.1----29.92- 59.5- 56.8---
0820 4:04 am E 1.9 4.1----29.92- 59.5- 56.8---
0820 4:02 amESE 2.9 4.1----29.92- 59.5- 56.8---
0820 4:00 amESE 4.1 6.0----29.92- 59.5- 56.8---
0820 3:58 am E 2.9 5.1----29.92- 59.5- 56.8---
0820 3:56 am E 1.9 4.1----29.92- 59.7- 57.0---
0820 3:54 am SE 4.1 5.1----29.92- 59.5- 56.8---
0820 3:52 am SE 5.1 7.0----29.92- 59.5- 56.8---
0820 3:50 am SE 4.1 5.1----29.93- 59.5- 56.8---
0820 3:48 amESE 4.1 5.1----29.93+0.00 59.5- 56.8---
0820 3:46 am SE 4.1 5.1----29.93- 59.7- 57.0---
0820 3:44 am SE 4.1 5.1----29.93- 59.5- 56.8---
0820 3:42 am SE 5.1 7.0----29.93- 59.5- 56.8---
0820 3:40 am SE 5.1 6.0----29.93- 59.7- 57.0---
0820 3:38 amESE 2.9 5.1----29.93- 59.7- 57.0---
0820 3:36 amESE 2.9 4.1----29.93- 59.7- 57.0---
0820 3:34 amESE 2.9 4.1----29.93- 59.7- 57.0---
0820 3:32 amESE 4.1 5.1----29.93- 59.7- 57.0---
0820 3:30 amESE 2.9 5.1----29.93- 59.7- 57.0---
0820 3:28 amENE 1.9 4.1----29.93- 59.5- 56.8---
0820 3:26 am E 2.9 5.1----29.93- 59.5- 56.8---
0820 3:24 amESE 2.9 5.1----29.93- 59.7- 57.0---
0820 3:22 amESE 2.9 4.1----29.93- 59.7- 57.0---
0820 3:20 amESE 5.1 6.0----29.93- 59.5- 56.8---
0820 3:18 amESE 5.1 7.0----29.93- 59.7- 57.0---
0820 3:16 amESE 4.1 6.0----29.93- 59.9- 57.0---
0820 3:14 amESE 4.1 6.0----29.93- 59.9- 57.0---
0820 3:12 amESE 2.9 5.1----29.93- 59.9- 57.0---
0820 3:10 amENE 2.9 5.1----29.93- 59.7- 56.7---
0820 3:08 am NE 2.9 4.1----29.93- 59.5- 56.5---
0820 3:06 am NE 2.9 6.0----29.93- 59.5- 56.5---
0820 3:04 amENE 4.1 6.0----29.93- 59.5- 56.5---
0820 3:02 am NE 2.9 5.1----29.93- 59.7- 56.7---
0820 3:00 am NE 2.9 4.1----29.93- 59.5- 56.5---
0820 2:58 am NE 4.1 5.1----29.93- 59.4- 56.1---
0820 2:56 am NE 4.1 5.1----29.93- 59.4- 56.3---
0820 2:54 am NE 2.9 5.1----29.93- 59.4- 56.3---
0820 2:52 am NE 4.1 5.1----29.93- 59.5- 56.5---
0820 2:50 am E 2.9 5.1----29.93- 59.7- 56.7---
0820 2:48 amNNE 4.1 6.0----29.93+0.00 59.7- 56.5---
0820 2:46 amNNE 2.9 5.1----29.93- 59.4- 56.1---
0820 2:44 amNNE 4.1 5.1----29.93- 59.4- 56.1---
0820 2:42 amNNE 4.1 6.0----29.93- 59.4- 56.1---
0820 2:40 amNNE 5.1 5.1----29.93- 59.4- 55.9---
0820 2:38 amNNE 5.1 6.0----29.93- 59.4- 56.1---
0820 2:36 amNNE 5.1 6.0----29.93- 59.5- 56.3---
0820 2:34 amNNE 5.1 7.0----29.93- 59.4- 56.1---
0820 2:32 amNNE 4.1 5.1----29.93- 59.4- 56.3---
0820 2:30 am NE 2.9 5.1----29.93- 59.7- 56.7---
0820 2:28 am NE 4.1 5.1----29.93- 59.7- 56.7---
0820 2:26 amNNE 4.1 5.1----29.93- 59.7- 56.5---
0820 2:24 amNNE 4.1 5.1----29.93- 59.7- 56.5---
0820 2:22 amNNE 5.1 7.0----29.93- 59.4- 56.1---
0820 2:20 amNNE 4.1 5.1----29.93- 59.5- 56.3---
0820 2:18 am NE 2.9 4.1----29.93- 59.5- 56.3---
0820 2:16 amNNE 5.1 6.0----29.93- 59.5- 56.3---
0820 2:14 amNNE 4.1 5.1----29.93- 59.5- 56.1---
0820 2:12 amNNE 4.1 5.1----29.93- 59.5- 56.3---
0820 2:10 amNNE 4.1 5.1----29.93- 59.5- 56.1---
0820 2:08 am NE 4.1 6.0----29.93- 59.7- 56.5---
0820 2:06 am NE 2.9 4.1----29.93- 59.7- 56.3---
0820 2:04 amNNE 2.9 4.1----29.93- 59.7- 56.3---
0820 2:02 amNNE 2.9 5.1----29.93- 59.5- 55.9---
0820 2:00 amNNE 2.9 5.1----29.93- 59.5- 55.9---
0820 1:58 am NE 4.1 5.1----29.93- 59.5- 55.9---
0820 1:56 am NE 5.1 6.0----29.93- 59.5- 55.9---
0820 1:54 amNNE 4.1 5.1----29.93- 59.5- 55.9---
0820 1:52 am NE 4.1 5.1----29.93- 59.5- 55.9---
0820 1:50 am NE 5.1 5.1----29.93- 59.4- 55.8---
0820 1:48 am NE 4.1 5.1----29.93+0.00 59.5- 55.9---
0820 1:46 am NE 4.1 6.0----29.93- 59.5- 55.9---
0820 1:44 amNNE 4.1 4.1----29.93- 59.5- 55.9---
0820 1:42 amNNE 4.1 5.1----29.93- 59.4- 55.8---
0820 1:40 amNNE 4.1 5.1----29.93- 59.4- 55.8---
0820 1:38 amNNE 5.1 6.0----29.93- 59.4- 55.9---
0820 1:36 amNNE 5.1 6.0----29.93- 59.4- 55.9---
0820 1:34 amNNE 5.1 6.0----29.92- 59.5- 56.1---
0820 1:32 amNNE 5.1 7.0----29.92- 59.5- 56.1---
0820 1:30 amNNE 5.1 7.0----29.92- 59.4- 55.9---
0820 1:28 am NE 5.1 7.0----29.92- 59.4- 55.9---
0820 1:26 amNNE 6.0 7.0----29.92- 59.2- 55.8---
0820 1:24 amNNE 6.0 7.0----29.92- 59.4- 55.9---
0820 1:22 am N 5.1 7.0----29.93- 59.2- 55.8---
0820 1:20 am N 5.1 7.0----29.93- 59.0- 55.4---
0820 1:18 am N 6.0 7.0----29.93- 59.0- 55.4---
0820 1:16 amNNE 7.0 8.0----29.93- 59.0- 55.6---
0820 1:14 amNNE 6.0 8.0----29.93- 59.4- 56.1---
0820 1:12 am N 5.1 8.9----29.93- 59.4- 56.1---
0820 1:10 am N 4.1 6.0----29.93- 59.2- 55.9---
0820 1:08 am N 6.0 7.0----29.93- 59.2- 55.8---
0820 1:06 am N 5.1 7.0----29.93- 59.2- 55.9---
0820 1:04 am N 5.1 7.0----29.93- 59.0- 55.6---
0820 1:02 amNNE 6.0 8.0----29.93- 58.8- 55.4---
0820 1:00 am N 5.1 7.0----29.93- 59.0- 55.6---
082012:58 amNNE 5.1 7.0----29.93- 58.8- 55.4---
082012:56 amNNE 6.0 7.0----29.93- 58.8- 55.4---
082012:54 amNNE 6.0 7.0----29.93- 58.8- 55.4---
082012:52 amNNE 5.1 7.0----29.93- 58.6- 55.2---
082012:50 amNNE 6.0 7.0----29.93- 58.6- 55.2---
082012:48 am N 5.1 7.0----29.93+0.00 58.6- 55.2---
082012:46 am N 6.0 7.0----29.93- 58.6- 55.2---
082012:44 am N 6.0 8.0----29.93- 58.6- 55.2---
082012:42 am N 5.1 7.0----29.93- 58.8- 55.4---
082012:40 am N 6.0 7.0----29.93- 58.8- 55.4---
082012:38 am N 6.0 7.0----29.93- 58.8- 55.4---
082012:36 am N 6.0 8.0----29.93- 58.8- 55.4---
082012:34 am N 6.0 7.0----29.93- 58.8- 55.4---
082012:32 am N 7.0 8.9----29.93- 58.8- 55.4---
082012:30 amNNE 6.0 7.0----29.93- 58.8- 55.4---
082012:28 amNNE 6.0 7.0----29.93- 59.0- 55.6---
082012:26 amNNE 6.0 7.0----29.93- 59.0- 55.6---
082012:24 amNNE 6.0 7.0----29.93- 59.0- 55.6---
082012:22 amNNE 6.0 7.0----29.93- 59.0- 55.6---
082012:20 amNNE 6.0 7.0----29.93- 59.0- 55.6---
082012:18 amNNE 6.0 7.0----29.93- 59.0- 55.6---
082012:16 amNNE 6.0 7.0----29.93- 59.0- 55.6---
082012:14 amNNE 6.0 7.0----29.93- 59.0- 55.6---
082012:12 amNNE 6.0 7.0----29.93- 59.2- 55.8---
082012:10 amNNE 6.0 7.0----29.93- 59.2- 55.8---
082012:08 amNNE 6.0 7.0----29.93- 59.2- 55.8---
082012:06 am N 6.0 7.0----29.93- 59.2- 55.8---
082012:04 am N 6.0 8.0----29.93- 59.2- 55.8---
082012:02 am N 5.1 8.0----29.93- 59.2- 55.8---
082012:00 am N 5.1 7.0----29.93- 59.4- 55.8---
081911:58 pm N 5.1 7.0----29.93- 59.4- 55.8---
081911:56 pm N 5.1 7.0----29.93- 59.4- 55.8---
081911:54 pm N 5.1 6.0----29.93- 59.4- 55.8---
081911:52 pm N 4.1 5.1----29.93- 59.4- 55.8---
081911:50 pm N 5.1 6.0----29.93- 59.4- 55.8---
081911:48 pm N 5.1 7.0----29.93- 59.5- 55.9---
081911:46 pm N 5.1 7.0----29.93- 59.5- 55.9---
081911:44 pm N 5.1 6.0----29.93- 59.5- 55.9---
081911:42 pm N 5.1 6.0----29.93- 59.7- 55.9---
081911:40 pm N 4.1 6.0----29.93- 59.5- 55.8---
081911:38 pm N 5.1 6.0----29.93- 59.5- 55.8---
081911:36 pm N 4.1 5.1----29.93- 59.5- 55.8---
081911:34 pm N 5.1 6.0----29.93- 59.5- 55.8---
081911:32 pm N 4.1 5.1----29.93- 59.5- 55.8---
081911:30 pm N 4.1 6.0----29.93- 59.7- 55.8---
081911:28 pm N 4.1 5.1----29.93- 59.7- 55.8---
081911:26 pm N 4.1 5.1----29.93- 59.7- 55.8---
081911:24 pm N 4.1 5.1----29.93- 59.7- 55.8---
081911:22 pm N 1.9 4.1----29.93- 59.9- 55.9---
081911:20 pm N 2.9 4.1----29.93- 59.9- 55.9---
081911:18 pm N 1.9 4.1----29.93- 59.9- 55.8---
081911:16 pm N 1.9 4.1----29.93- 59.9- 55.8---
081911:14 pm N 2.9 5.1----29.93- 59.9- 55.9---
081911:12 pm N 4.1 5.1----29.93- 59.9- 55.9---
081911:10 pm N 5.1 7.0----29.93- 59.9- 55.9---
081911:08 pm N 5.1 7.0----29.93- 59.9- 55.8---
081911:06 pm N 4.1 6.0----29.93- 59.9- 55.8---
081911:04 pm N 4.1 7.0----29.93- 60.1- 55.9---
081911:02 pm N 5.1 6.0----29.93- 60.3- 56.1---
081911:00 pmNNE 5.1 6.0----29.93- 60.1- 55.8---
081910:58 pmNNE 5.1 6.0----29.93- 60.3- 55.9---
081910:56 pmNNE 5.1 6.0----29.93- 60.3- 55.9---
081910:54 pmNNE 5.1 5.1----29.93- 60.3- 55.9---
081910:52 pmNNE 5.1 6.0----29.93- 60.3- 55.9---
081910:50 pmNNE 5.1 6.0----29.93- 60.4- 55.9---
081910:48 pm N 5.1 6.0----29.93+0.02 60.4- 55.9---
081910:46 pm N 5.1 6.0----29.93- 60.6- 56.1---
081910:44 pm N 4.1 5.1----29.93- 60.6- 56.1---
081910:42 pm N 4.1 5.1----29.93- 60.6- 56.1---
081910:40 pm N 4.1 5.1----29.93- 60.8- 56.3---
081910:38 pm N 4.1 5.1----29.93- 61.0- 56.3---
081910:36 pm N 4.1 5.1----29.93- 61.0- 56.3---
081910:34 pm N 2.9 5.1----29.93- 61.2- 56.5---
081910:32 pm N 4.1 7.0----29.93- 61.0- 56.1---
081910:30 pmNNE 4.1 5.1----29.93- 61.2- 56.3---
081910:28 pmNNE 4.1 5.1----29.93- 61.2- 56.3---
081910:26 pmNNE 4.1 5.1----29.93- 61.2- 56.3---
081910:24 pmNNE 4.1 5.1----29.93- 61.2- 56.3---
081910:22 pmNNE 5.1 6.0----29.93- 61.2- 56.1---
081910:20 pmNNE 5.1 6.0----29.93- 61.2- 55.9---
081910:18 pmNNE 5.1 7.0----29.93- 61.3- 56.1---
081910:16 pmNNE 5.1 6.0----29.93- 61.5- 56.1---
081910:14 pm N 4.1 5.1----29.93- 61.7- 56.5---
081910:12 pmENE 1.9 5.1----29.93- 61.9- 56.7---
081910:10 pmESE 4.1 6.0----29.93- 62.1- 57.0---
081910:08 pmESE 6.0 7.0----29.93- 61.9- 56.7---
081910:06 pmESE 4.1 5.1----29.93- 61.9- 56.7---
081910:04 pmESE 4.1 5.1----29.93- 61.9- 56.3---
081910:02 pm E 5.1 6.0----29.93- 62.1- 56.5---
081910:00 pm E 5.1 6.0----29.93- 62.2- 56.7---
0819 9:58 pm E 4.1 5.1----29.93- 62.2- 56.8---
0819 9:56 pm E 4.1 5.1----29.93- 62.2- 56.5---
0819 9:54 pm E 4.1 4.1----29.93- 62.4- 56.7---
0819 9:52 pm E 2.9 4.1----29.93- 62.4- 56.7---
0819 9:50 pm E 2.9 4.1----29.93- 62.6- 56.8---
0819 9:48 pm E 4.1 5.1----29.93+0.03 62.8- 57.0---
0819 9:46 pm E 4.1 5.1----29.93- 62.8- 56.8---
0819 9:44 pm E 5.1 6.0----29.93- 63.0- 57.4---
0819 9:42 pm E 4.1 5.1----29.93- 63.0- 57.2---
0819 9:40 pm E 2.9 4.1----29.93- 63.0- 57.4---
0819 9:38 pm E 4.1 5.1----29.93- 63.0- 57.4---
0819 9:36 pm E 4.1 6.0----29.93- 63.0- 57.6---
0819 9:34 pmESE 6.0 7.0----29.93- 63.0- 58.3---
0819 9:32 pmESE 5.1 7.0----29.93- 63.1- 58.6---
0819 9:30 pmESE 5.1 7.0----29.92- 63.1- 58.5---
0819 9:28 pmESE 6.0 7.0----29.92- 63.1- 58.5---
0819 9:26 pmESE 6.0 7.0----29.92- 63.1- 58.6---
0819 9:24 pmESE 6.0 7.0----29.92- 63.1- 58.3---
0819 9:22 pmESE 6.0 8.0----29.92- 63.1- 58.3---
0819 9:20 pmESE 7.0 7.0----29.92- 63.1- 58.3---
0819 9:18 pmESE 6.0 8.0----29.92- 63.1- 58.3---
0819 9:16 pmESE 5.1 7.0----29.92- 63.1- 58.5---
0819 9:14 pm SE 6.0 7.0----29.93- 63.1- 58.5---
0819 9:12 pm SE 6.0 7.0----29.92- 63.0- 57.9---
0819 9:10 pm SE 6.0 7.0----29.92- 63.0- 58.1---
0819 9:08 pmESE 6.0 7.0----29.92- 63.0- 58.3---
0819 9:06 pm SE 6.0 7.0----29.92- 63.0- 58.3---
0819 9:04 pm SE 6.0 7.0----29.92- 63.0- 58.3---
0819 9:02 pmESE 4.1 6.0----29.92- 63.1- 58.6---
0819 9:00 pmESE 4.1 5.1----29.92- 63.1- 58.6---
0819 8:58 pmESE 5.1 6.0----29.92- 63.0- 58.3---
0819 8:56 pm SE 5.1 6.0----29.91- 63.0- 58.5---
0819 8:54 pmESE 1.9 2.9----29.91- 63.0- 58.3---
0819 8:52 pm SE 2.9 5.1----29.91- 63.0- 58.3---
0819 8:50 pmESE 2.9 5.1----29.91- 63.0- 58.3---
0819 8:48 pm SE 1.9 4.1----29.91+0.01 63.0- 58.1---
0819 8:46 pm SE 1.9 4.1----29.91- 63.1- 58.1---
0819 8:44 pm SE 2.9 5.1----29.91- 63.1- 58.1---
0819 8:42 pmESE 4.1 5.1----29.91- 63.1- 58.1---
0819 8:40 pm SE 4.1 5.1----29.91- 63.1- 58.1---
0819 8:38 pm SE 4.1 6.0----29.91- 63.3- 58.1---
0819 8:36 pmESE 4.1 5.1----29.91- 63.3- 58.1---
0819 8:34 pm SE 5.1 8.0----29.91- 63.3- 57.9---
0819 8:32 pm SE 4.1 5.1----29.91- 63.5- 58.1---
0819 8:30 pm SE 4.1 5.1----29.91- 63.7- 58.3---
0819 8:28 pm SE 5.1 8.0----29.91- 63.7- 58.3---
0819 8:26 pm SE 6.0 8.9----29.91- 63.5- 58.3---
0819 8:24 pm SE 5.1 7.0----29.91- 63.7- 58.5---
0819 8:22 pmSSE 5.1 7.0----29.91- 63.7- 58.6---
0819 8:20 pm SE 7.0 8.9----29.91- 63.5- 58.6---
0819 8:18 pm SE 8.0 8.9----29.91- 63.7- 58.8---
0819 8:16 pm SE 9.9 11.1----29.91- 63.7- 58.6---
0819 8:14 pm SE 8.9 9.9----29.91- 63.7- 58.6---
0819 8:12 pm SE 8.9 9.9----29.91- 63.7- 58.6---
0819 8:10 pm SE 8.9 11.1----29.91- 63.9- 58.8---
0819 8:08 pm SE 9.9 11.1----29.91- 63.9- 58.6---
0819 8:06 pmESE 8.9 9.9----29.91- 63.9- 58.8---
0819 8:04 pm SE 8.9 11.1----29.91- 64.0- 59.0---
0819 8:02 pmESE 8.9 11.1----29.91- 63.9- 58.8---
0819 8:00 pmESE 8.9 9.9----29.91- 64.0- 59.0---
0819 7:58 pmESE 9.9 9.9----29.91- 63.9- 58.6---
0819 7:56 pmESE 8.9 9.9----29.90- 64.0- 59.0---
0819 7:54 pmESE 8.9 9.9----29.90- 63.9- 58.6---
0819 7:52 pmESE 8.9 9.9----29.91- 64.0- 59.0---
0819 7:50 pmESE 8.9 9.9----29.90- 64.0- 58.8---
0819 7:48 pmESE 8.0 8.9----29.91+0.00 64.0- 58.8---
0819 7:46 pmESE 8.0 8.9----29.91- 64.2- 59.0---
0819 7:44 pmESE 7.0 8.0----29.90- 64.2- 59.0---
0819 7:42 pmESE 8.0 8.9----29.90- 64.0- 58.6---
0819 7:40 pmESE 7.0 8.9----29.90- 64.0- 58.8---
0819 7:38 pm E 7.0 8.9----29.90- 64.2- 58.8---
0819 7:36 pm E 7.0 8.9----29.90- 64.2- 58.8---
0819 7:34 pm E 7.0 8.0----29.90- 64.2- 58.6---
0819 7:32 pm E 7.0 8.0----29.90- 64.4- 58.8---
0819 7:30 pm E 7.0 8.9----29.90- 64.4- 58.8---
0819 7:28 pm E 7.0 8.9----29.90- 64.6- 58.8---
0819 7:26 pm E 7.0 8.9----29.90- 64.8- 59.2---
0819 7:24 pm E 6.0 8.0----29.91- 64.8- 59.0---
0819 7:22 pm E 6.0 8.0----29.90- 64.8- 59.0---
0819 7:20 pm E 6.0 8.0----29.90- 64.9- 59.2---
0819 7:18 pm E 5.1 7.0----29.90- 65.1- 59.5---
0819 7:16 pm E 5.1 7.0----29.90- 64.9- 59.0---
0819 7:14 pm E 5.1 7.0----29.90- 64.8- 59.0---
0819 7:12 pm E 6.0 7.0----29.90- 64.8- 58.8---
0819 7:10 pm E 5.1 7.0----29.90- 64.9- 59.2---
0819 7:08 pm E 6.0 8.0----29.90- 64.9- 58.6---
0819 7:06 pm E 6.0 8.0----29.90- 64.9- 58.6---
0819 7:04 pm E 6.0 8.0----29.90- 65.3- 59.0---
0819 7:02 pm E 5.1 7.0----29.90- 65.5- 58.8---
0819 7:00 pm E 5.1 7.0----29.90- 65.7- 59.4---
0819 6:58 pm E 5.1 7.0----29.90- 65.5- 59.2---
0819 6:56 pm E 6.0 7.0----29.90- 65.5- 59.2---
0819 6:54 pm E 7.0 8.9----29.90- 65.3- 58.8---
0819 6:52 pm E 7.0 8.9----29.90- 65.5- 58.8---
0819 6:50 pm E 8.0 8.9----29.90- 65.5- 58.6---
0819 6:48 pm E 8.0 8.9----29.90-0.03 65.5- 58.8---
0819 6:46 pm E 7.0 8.9----29.90- 65.7- 59.0---
0819 6:44 pm E 7.0 8.9----29.90- 65.7- 59.4---
0819 6:42 pm E 8.0 8.9----29.90- 65.7- 58.6---
0819 6:40 pm E 7.0 8.9----29.90- 65.8- 59.0---
0819 6:38 pm E 7.0 8.9----29.90- 65.8- 58.6---
0819 6:36 pm E 7.0 8.0----29.90- 65.8- 59.2---
0819 6:34 pm E 7.0 8.9----29.90- 65.8- 58.8---
0819 6:32 pm E 7.0 8.0----29.90- 66.0- 59.2---
0819 6:30 pm E 7.0 8.9----29.90- 66.2- 58.8---
0819 6:28 pm E 7.0 8.0----29.90- 66.4- 59.2---
0819 6:26 pm E 7.0 8.9----29.90- 66.2- 59.2---
0819 6:24 pm E 7.0 8.9----29.90- 66.2- 59.4---
0819 6:22 pm E 7.0 8.0----29.90- 66.0- 59.2---
0819 6:20 pm E 7.0 8.0----29.90- 66.0- 59.2---
0819 6:18 pm E 7.0 8.9----29.90- 65.8- 58.8---
0819 6:16 pm E 7.0 8.9----29.90- 66.0- 59.2---
0819 6:14 pm E 8.0 8.9----29.90- 66.4- 59.5---
0819 6:12 pm E 8.0 9.9----29.90- 66.4- 59.2---
0819 6:10 pm E 8.0 9.9----29.90- 66.4- 59.2---
0819 6:08 pm E 8.0 8.9----29.90- 66.6- 59.0---
0819 6:06 pm E 8.0 8.9----29.90- 66.4- 59.2---
0819 6:04 pm E 8.0 8.9----29.90- 66.4- 58.6---
0819 6:02 pm E 8.0 8.9----29.90- 66.6- 58.6---
0819 6:00 pm E 7.0 8.9----29.90- 66.7- 59.4---
0819 5:58 pm E 7.0 8.9----29.90- 66.7- 58.6---
0819 5:56 pm E 7.0 8.9----29.90- 66.9- 58.6---
0819 5:54 pm E 7.0 8.9----29.90- 67.1- 58.8---
0819 5:52 pm E 7.0 8.9----29.90- 67.3- 58.8---
0819 5:50 pm E 7.0 8.9----29.90- 67.3- 58.5---
0819 5:48 pm E 6.0 8.0----29.90-0.05 67.8- 59.4---
0819 5:46 pm E 6.0 8.0----29.90- 67.8- 59.0---
0819 5:44 pm E 6.0 7.0----29.90- 67.8- 59.0---
0819 5:42 pm E 5.1 7.0----29.90- 68.2- 59.9---
0819 5:40 pm E 6.0 7.0----29.90- 68.0- 59.0---
0819 5:38 pm E 6.0 7.0----29.90- 68.0- 59.2---
0819 5:36 pm E 6.0 7.0----29.90- 68.2- 59.2---
0819 5:34 pm E 5.1 7.0----29.90- 68.2- 59.4---
0819 5:32 pm E 5.1 7.0----29.90- 68.4- 59.4---
0819 5:30 pm E 6.0 7.0----29.90- 68.0- 59.2---
0819 5:28 pm E 6.0 8.0----29.90- 68.2- 59.5---
0819 5:26 pm E 6.0 8.0----29.90- 68.2- 59.5---
0819 5:24 pm E 5.1 7.0----29.90- 68.4- 59.5---
0819 5:22 pm E 5.1 6.0----29.90- 68.7- 59.7---
0819 5:20 pm E 5.1 6.0----29.90- 68.7- 59.7---
0819 5:18 pm E 4.1 5.1----29.90- 68.7- 59.4---
0819 5:16 pm E 4.1 5.1----29.90- 68.9- 59.5---
0819 5:14 pm E 4.1 5.1----29.90- 68.9- 59.5---
0819 5:12 pmESE 2.9 4.1----29.90- 69.1- 59.7---
0819 5:10 pmESE 4.1 5.1----29.91- 68.9- 59.4---
0819 5:08 pm E 4.1 5.1----29.91- 68.9- 59.4---
0819 5:06 pm E 2.9 4.1----29.90- 68.9- 59.9---
0819 5:04 pm E 4.1 5.1----29.90- 68.7- 59.9---
0819 4:52 pm E 6.0 7.0----29.90- 68.2- 60.1---
0819 4:50 pm E 5.1 7.0----29.90- 68.2- 59.9---

Solar Radiation Conditions at CPXC1 as of
(4:58 pm PDT)
2358 GMT on 08/20/2018:
     

Click on the graph icon in the table below to see a time series plot of the last five days of that observation.

5-day plot - Short Wave Radiation 1Short Wave Radiation 1 (SRAD1): 644.5watts/meter2
Previous observations
5-day plot - Short Wave Radiation 1 5-day plot - Short Wave Radiation 2 5-day plot - Long Wave Radiation
MM   DD    TIME
(PDT)
  SRAD1
w/m2
   SWRAD
w/m2
    LWRAD
w/m2
08204:48 pm 677.4--
08204:38 pm 668.0--
08204:28 pm 747.9--
08204:18 pm 780.8--
08204:08 pm 794.9--
08203:58 pm 832.5--
08203:46 pm 841.9--
08203:36 pm 903.0--
08203:26 pm 917.1--
08203:16 pm 959.4--
08203:06 pm 964.1--
08202:56 pm 978.2--
08202:46 pm 997.0--
08202:36 pm1025.2--
08202:26 pm1053.4--
08202:16 pm1067.5--
08202:06 pm1086.3--
08201:54 pm1081.7--
08201:44 pm1119.3--
08201:34 pm1119.3--
08201:24 pm1119.3--
08201:14 pm1119.3--
08201:04 pm1114.5--
082012:54 pm1109.8--
082012:44 pm1100.5--
082012:34 pm1091.0--
082012:24 pm1081.7--
082012:14 pm1072.2--
082012:02 pm 884.2--
082011:52 am1029.9--
082011:42 am 959.4--
082011:32 am 649.2--
082011:22 am 489.3--
082011:12 am 400.0--
082011:02 am 301.3--
082010:52 am 291.9--
082010:42 am 306.0--
082010:32 am 221.4--
082010:22 am 212.0--
082010:10 am 174.4--
082010:00 am 127.3--
08209:50 am 122.6--
08209:40 am 94.4--
08209:30 am 108.5--
08209:20 am 103.8--
08209:10 am 94.4--
08209:00 am 66.2--
08208:50 am 66.2--
08208:38 am 61.5--
08208:28 am 80.3--
08208:18 am 52.1--
08208:08 am 47.4--
08207:58 am 47.4--
08207:48 am 33.3--
08207:38 am 28.6--
08207:28 am 23.9--
08207:18 am 19.2--
08207:08 am 19.2--
08206:56 am 14.5--
08206:46 am 9.8--
08206:36 am 9.8--
08206:26 am 5.1--
08206:16 am 5.1--
08206:06 am 5.1--
08205:56 am 5.1--
08205:46 am 5.1--
08205:36 am 5.1--
08205:26 am 5.1--
08205:16 am 5.1--
08205:06 am 5.1--
08204:54 am 9.8--
08204:44 am 5.1--
08204:34 am 5.1--
08204:24 am 5.1--
08204:14 am 5.1--
08204:04 am 5.1--
08203:54 am 5.1--
08203:44 am 5.1--
08203:34 am 9.8--
08203:24 am 9.8--
08203:14 am 9.8--
08203:04 am 9.8--
08202:52 am 9.8--
08202:42 am 5.1--
08202:32 am 5.1--
08202:22 am 5.1--
08202:12 am 5.1--
08202:02 am 5.1--
08201:52 am 5.1--
08201:42 am 5.1--
08201:32 am 9.8--
08201:22 am 5.1--
08201:12 am 9.8--
08201:00 am 9.8--
082012:50 am 5.1--
082012:40 am 5.1--
082012:30 am 5.1--
082012:20 am 5.1--
082012:10 am 5.1--
082012:00 am 0.4--
081911:50 pm 0.4--
081911:40 pm 0.4--
081911:30 pm 0.4--
081911:20 pm 0.4--
081911:10 pm 0.4--
081910:58 pm 0.4--
081910:48 pm 0.4--
081910:38 pm 0.4--
081910:28 pm 0.4--
081910:18 pm 0.4--
081910:08 pm 0.4--
08199:58 pm 0.4--
08199:48 pm 0.4--
08199:38 pm 0.4--
08199:28 pm 0.4--
08199:18 pm 5.1--
08199:08 pm 5.1--
08198:56 pm 0.4--
08198:46 pm 0.4--
08198:36 pm 0.4--
08198:26 pm 0.4--
08198:16 pm 0.4--
08198:06 pm 5.1--
08197:56 pm 5.1--
08197:46 pm 5.1--
08197:36 pm 9.8--
08197:26 pm 14.5--
08197:16 pm 52.1--
08197:06 pm 80.3--
08196:54 pm 117.9--
08196:44 pm 150.8--
08196:34 pm 188.5--
08196:24 pm 221.4--
08196:14 pm 268.4--
08196:04 pm 306.0--
08195:54 pm 353.0--
08195:44 pm 395.3--
08195:34 pm 447.0--
08195:24 pm 475.2--
08195:14 pm 526.9--
08195:04 pm 578.6--
08194:52 pm 616.2--

Description of Measurements

Links which are specific to this station are listed below:

Real Time Data in tabular form for the last forty-five days.

Historical Data & Climatic Summaries for quality controlled data for the current month, previous months, and previous years.